sensor_id;sensor_type;location;lat;lon;timestamp;pressure;altitude;pressure_sealevel;temperature;humidity
42415;BME280;28058;46.344;17.786;2023-01-15T00:01:55;118336.50;;;-144.97;100.00
42415;BME280;28058;46.344;17.786;2023-01-15T00:04:21;118336.50;;;-144.97;100.00
42415;BME280;28058;46.344;17.786;2023-01-15T00:06:48;118336.50;;;-144.97;100.00
42415;BME280;28058;46.344;17.786;2023-01-15T00:09:16;118336.50;;;-144.97;100.00
42415;BME280;28058;46.344;17.786;2023-01-15T00:11:42;118336.50;;;-144.97;100.00
42415;BME280;28058;46.344;17.786;2023-01-15T00:14:09;118336.50;;;-144.97;100.00
42415;BME280;28058;46.344;17.786;2023-01-15T00:16:38;118336.50;;;-144.97;100.00
42415;BME280;28058;46.344;17.786;2023-01-15T00:19:08;118336.50;;;-144.97;100.00
42415;BME280;28058;46.344;17.786;2023-01-15T00:21:36;118336.50;;;-144.97;100.00
42415;BME280;28058;46.344;17.786;2023-01-15T00:24:04;118336.50;;;-144.97;100.00
42415;BME280;28058;46.344;17.786;2023-01-15T00:26:49;118336.50;;;-144.97;100.00
42415;BME280;28058;46.344;17.786;2023-01-15T00:29:34;118336.50;;;-144.97;100.00
42415;BME280;28058;46.344;17.786;2023-01-15T00:32:04;118336.50;;;-144.97;100.00
42415;BME280;28058;46.344;17.786;2023-01-15T00:34:32;118336.50;;;-144.97;100.00
42415;BME280;28058;46.344;17.786;2023-01-15T00:36:59;118336.50;;;-144.97;100.00
42415;BME280;28058;46.344;17.786;2023-01-15T00:39:26;118336.50;;;-144.97;100.00
42415;BME280;28058;46.344;17.786;2023-01-15T00:41:54;118336.50;;;-144.97;100.00
42415;BME280;28058;46.344;17.786;2023-01-15T00:44:21;118336.50;;;-144.97;100.00
42415;BME280;28058;46.344;17.786;2023-01-15T00:46:48;118336.50;;;-144.97;100.00
42415;BME280;28058;46.344;17.786;2023-01-15T00:49:15;118336.50;;;-144.97;100.00
42415;BME280;28058;46.344;17.786;2023-01-15T00:51:42;118336.50;;;-144.97;100.00
42415;BME280;28058;46.344;17.786;2023-01-15T00:54:09;118336.50;;;-144.97;100.00
42415;BME280;28058;46.344;17.786;2023-01-15T00:56:36;118336.50;;;-144.97;100.00
42415;BME280;28058;46.344;17.786;2023-01-15T00:59:04;118336.50;;;-144.97;100.00
42415;BME280;28058;46.344;17.786;2023-01-15T01:01:31;118336.50;;;-144.97;100.00
42415;BME280;28058;46.344;17.786;2023-01-15T01:03:58;118336.50;;;-144.97;100.00
42415;BME280;28058;46.344;17.786;2023-01-15T01:06:25;118336.50;;;-144.97;100.00
42415;BME280;28058;46.344;17.786;2023-01-15T01:08:53;118336.50;;;-144.97;100.00
42415;BME280;28058;46.344;17.786;2023-01-15T01:11:21;118336.50;;;-144.97;100.00
42415;BME280;28058;46.344;17.786;2023-01-15T01:13:50;118336.50;;;-144.97;100.00
42415;BME280;28058;46.344;17.786;2023-01-15T01:18:47;118336.50;;;-144.97;100.00
42415;BME280;28058;46.344;17.786;2023-01-15T01:21:13;118336.50;;;-144.97;100.00
42415;BME280;28058;46.344;17.786;2023-01-15T01:23:40;118336.50;;;-144.97;100.00
42415;BME280;28058;46.344;17.786;2023-01-15T01:26:07;118336.50;;;-144.97;100.00
42415;BME280;28058;46.344;17.786;2023-01-15T01:28:35;118336.50;;;-144.97;100.00
42415;BME280;28058;46.344;17.786;2023-01-15T01:31:06;118336.50;;;-144.97;100.00
42415;BME280;28058;46.344;17.786;2023-01-15T01:33:34;118336.50;;;-144.97;100.00
42415;BME280;28058;46.344;17.786;2023-01-15T01:36:01;118336.50;;;-144.97;100.00
42415;BME280;28058;46.344;17.786;2023-01-15T01:38:28;118336.50;;;-144.97;100.00
42415;BME280;28058;46.344;17.786;2023-01-15T01:40:54;118336.50;;;-144.97;100.00
42415;BME280;28058;46.344;17.786;2023-01-15T01:43:26;118336.50;;;-144.97;100.00
42415;BME280;28058;46.344;17.786;2023-01-15T01:45:53;118336.50;;;-144.97;100.00
42415;BME280;28058;46.344;17.786;2023-01-15T01:48:24;118336.50;;;-144.97;100.00
42415;BME280;28058;46.344;17.786;2023-01-15T01:50:53;118336.50;;;-144.97;100.00
42415;BME280;28058;46.344;17.786;2023-01-15T01:53:23;118336.50;;;-144.97;100.00
42415;BME280;28058;46.344;17.786;2023-01-15T01:55:52;118336.50;;;-144.97;100.00
42415;BME280;28058;46.344;17.786;2023-01-15T01:58:20;118336.50;;;-144.97;100.00
42415;BME280;28058;46.344;17.786;2023-01-15T02:00:50;118336.50;;;-144.97;100.00
42415;BME280;28058;46.344;17.786;2023-01-15T02:03:21;118336.50;;;-144.97;100.00
42415;BME280;28058;46.344;17.786;2023-01-15T02:05:52;118336.50;;;-144.97;100.00
42415;BME280;28058;46.344;17.786;2023-01-15T02:08:21;118336.50;;;-144.97;100.00
42415;BME280;28058;46.344;17.786;2023-01-15T02:10:51;118336.50;;;-144.97;100.00
42415;BME280;28058;46.344;17.786;2023-01-15T02:13:26;118336.50;;;-144.97;100.00
42415;BME280;28058;46.344;17.786;2023-01-15T02:16:12;118336.50;;;-144.97;100.00
42415;BME280;28058;46.344;17.786;2023-01-15T02:24:21;118336.50;;;-144.97;100.00
42415;BME280;28058;46.344;17.786;2023-01-15T02:30:17;118336.50;;;-144.97;100.00
42415;BME280;28058;46.344;17.786;2023-01-15T02:32:49;118336.50;;;-144.97;100.00
42415;BME280;28058;46.344;17.786;2023-01-15T02:35:51;118336.50;;;-144.97;100.00
42415;BME280;28058;46.344;17.786;2023-01-15T02:38:18;118336.50;;;-144.97;100.00
42415;BME280;28058;46.344;17.786;2023-01-15T02:40:49;118336.50;;;-144.97;100.00
42415;BME280;28058;46.344;17.786;2023-01-15T02:43:18;118336.50;;;-144.97;100.00
42415;BME280;28058;46.344;17.786;2023-01-15T02:45:48;118336.50;;;-144.97;100.00
42415;BME280;28058;46.344;17.786;2023-01-15T02:48:17;118336.50;;;-144.97;100.00
42415;BME280;28058;46.344;17.786;2023-01-15T02:50:53;118336.50;;;-144.97;100.00
42415;BME280;28058;46.344;17.786;2023-01-15T02:53:24;118336.50;;;-144.97;100.00
42415;BME280;28058;46.344;17.786;2023-01-15T02:55:55;118336.50;;;-144.97;100.00
42415;BME280;28058;46.344;17.786;2023-01-15T02:58:27;118336.50;;;-144.97;100.00
42415;BME280;28058;46.344;17.786;2023-01-15T03:00:57;118336.50;;;-144.97;100.00
42415;BME280;28058;46.344;17.786;2023-01-15T03:04:16;118336.50;;;-144.97;100.00
42415;BME280;28058;46.344;17.786;2023-01-15T03:06:42;118336.50;;;-144.97;100.00
42415;BME280;28058;46.344;17.786;2023-01-15T03:09:12;118336.50;;;-144.97;100.00
42415;BME280;28058;46.344;17.786;2023-01-15T03:11:50;118336.50;;;-144.97;100.00
42415;BME280;28058;46.344;17.786;2023-01-15T03:14:27;118336.50;;;-144.97;100.00
42415;BME280;28058;46.344;17.786;2023-01-15T03:17:03;118336.50;;;-144.97;100.00
42415;BME280;28058;46.344;17.786;2023-01-15T03:19:47;118336.50;;;-144.97;100.00
42415;BME280;28058;46.344;17.786;2023-01-15T03:22:31;118336.50;;;-144.97;100.00
42415;BME280;28058;46.344;17.786;2023-01-15T03:25:12;118336.50;;;-144.97;100.00
42415;BME280;28058;46.344;17.786;2023-01-15T03:27:41;118336.50;;;-144.97;100.00
42415;BME280;28058;46.344;17.786;2023-01-15T03:30:14;118336.50;;;-144.97;100.00
42415;BME280;28058;46.344;17.786;2023-01-15T03:32:41;118336.50;;;-144.97;100.00
42415;BME280;28058;46.344;17.786;2023-01-15T03:38:11;118336.50;;;-144.97;100.00
42415;BME280;28058;46.344;17.786;2023-01-15T03:40:47;118336.50;;;-144.97;100.00
42415;BME280;28058;46.344;17.786;2023-01-15T03:43:19;118336.50;;;-144.97;100.00
42415;BME280;28058;46.344;17.786;2023-01-15T03:46:11;118336.50;;;-144.97;100.00
42415;BME280;28058;46.344;17.786;2023-01-15T03:48:50;118336.50;;;-144.97;100.00
42415;BME280;28058;46.344;17.786;2023-01-15T03:51:26;118336.50;;;-144.97;100.00
42415;BME280;28058;46.344;17.786;2023-01-15T03:53:58;118336.50;;;-144.97;100.00
42415;BME280;28058;46.344;17.786;2023-01-15T03:56:37;118336.50;;;-144.97;100.00
42415;BME280;28058;46.344;17.786;2023-01-15T03:59:22;118336.50;;;-144.97;100.00
42415;BME280;28058;46.344;17.786;2023-01-15T04:01:53;118336.50;;;-144.97;100.00
42415;BME280;28058;46.344;17.786;2023-01-15T04:04:20;118336.50;;;-144.97;100.00
42415;BME280;28058;46.344;17.786;2023-01-15T04:06:48;118336.50;;;-144.97;100.00
42415;BME280;28058;46.344;17.786;2023-01-15T04:09:15;118336.50;;;-144.97;100.00
42415;BME280;28058;46.344;17.786;2023-01-15T04:11:42;118336.50;;;-144.97;100.00
42415;BME280;28058;46.344;17.786;2023-01-15T04:14:12;118336.50;;;-144.97;100.00
42415;BME280;28058;46.344;17.786;2023-01-15T04:16:39;118336.50;;;-144.97;100.00
42415;BME280;28058;46.344;17.786;2023-01-15T04:19:06;118336.50;;;-144.97;100.00
42415;BME280;28058;46.344;17.786;2023-01-15T04:21:33;118336.50;;;-144.97;100.00
42415;BME280;28058;46.344;17.786;2023-01-15T04:24:00;118336.50;;;-144.97;100.00
42415;BME280;28058;46.344;17.786;2023-01-15T04:26:27;118336.50;;;-144.97;100.00
42415;BME280;28058;46.344;17.786;2023-01-15T04:28:54;118336.50;;;-144.97;100.00
42415;BME280;28058;46.344;17.786;2023-01-15T04:31:21;118336.50;;;-144.97;100.00
42415;BME280;28058;46.344;17.786;2023-01-15T04:33:48;118336.50;;;-144.97;100.00
42415;BME280;28058;46.344;17.786;2023-01-15T04:36:14;118336.50;;;-144.97;100.00
42415;BME280;28058;46.344;17.786;2023-01-15T04:38:41;118336.50;;;-144.97;100.00
42415;BME280;28058;46.344;17.786;2023-01-15T04:41:08;118336.50;;;-144.97;100.00
42415;BME280;28058;46.344;17.786;2023-01-15T04:43:54;118336.50;;;-144.97;100.00
42415;BME280;28058;46.344;17.786;2023-01-15T04:49:21;118336.50;;;-144.97;100.00
42415;BME280;28058;46.344;17.786;2023-01-15T04:51:48;118336.50;;;-144.97;100.00
42415;BME280;28058;46.344;17.786;2023-01-15T04:54:16;118336.50;;;-144.97;100.00
42415;BME280;28058;46.344;17.786;2023-01-15T04:56:45;118336.50;;;-144.97;100.00
42415;BME280;28058;46.344;17.786;2023-01-15T04:59:14;118336.50;;;-144.97;100.00
42415;BME280;28058;46.344;17.786;2023-01-15T05:01:41;118336.50;;;-144.97;100.00
42415;BME280;28058;46.344;17.786;2023-01-15T05:04:28;118336.50;;;-144.97;100.00
42415;BME280;28058;46.344;17.786;2023-01-15T05:06:55;118336.50;;;-144.97;100.00
42415;BME280;28058;46.344;17.786;2023-01-15T05:09:21;118336.50;;;-144.97;100.00
42415;BME280;28058;46.344;17.786;2023-01-15T05:11:48;118336.50;;;-144.97;100.00
42415;BME280;28058;46.344;17.786;2023-01-15T05:14:15;118336.50;;;-144.97;100.00
42415;BME280;28058;46.344;17.786;2023-01-15T05:16:42;118336.50;;;-144.97;100.00
42415;BME280;28058;46.344;17.786;2023-01-15T05:19:09;118336.50;;;-144.97;100.00
42415;BME280;28058;46.344;17.786;2023-01-15T05:21:40;118336.50;;;-144.97;100.00
42415;BME280;28058;46.344;17.786;2023-01-15T05:24:11;118336.50;;;-144.97;100.00
42415;BME280;28058;46.344;17.786;2023-01-15T05:26:40;118336.50;;;-144.97;100.00
42415;BME280;28058;46.344;17.786;2023-01-15T05:29:07;118336.50;;;-144.97;100.00
42415;BME280;28058;46.344;17.786;2023-01-15T05:31:34;118336.50;;;-144.97;100.00
42415;BME280;28058;46.344;17.786;2023-01-15T05:34:01;118336.50;;;-144.97;100.00
42415;BME280;28058;46.344;17.786;2023-01-15T05:36:29;118336.50;;;-144.97;100.00
42415;BME280;28058;46.344;17.786;2023-01-15T05:38:58;118336.50;;;-144.97;100.00
42415;BME280;28058;46.344;17.786;2023-01-15T05:41:28;118336.50;;;-144.97;100.00
42415;BME280;28058;46.344;17.786;2023-01-15T05:46:47;118336.50;;;-144.97;100.00
42415;BME280;28058;46.344;17.786;2023-01-15T05:49:17;118336.50;;;-144.97;100.00
42415;BME280;28058;46.344;17.786;2023-01-15T05:51:45;118336.50;;;-144.97;100.00
42415;BME280;28058;46.344;17.786;2023-01-15T05:54:15;118336.50;;;-144.97;100.00
42415;BME280;28058;46.344;17.786;2023-01-15T05:56:43;118336.50;;;-144.97;100.00
42415;BME280;28058;46.344;17.786;2023-01-15T05:59:11;118336.50;;;-144.97;100.00
42415;BME280;28058;46.344;17.786;2023-01-15T06:01:39;118336.50;;;-144.97;100.00
42415;BME280;28058;46.344;17.786;2023-01-15T06:04:06;118336.50;;;-144.97;100.00
42415;BME280;28058;46.344;17.786;2023-01-15T06:06:34;118336.50;;;-144.97;100.00
42415;BME280;28058;46.344;17.786;2023-01-15T06:09:03;118336.50;;;-144.97;100.00
42415;BME280;28058;46.344;17.786;2023-01-15T06:11:30;118336.50;;;-144.97;100.00
42415;BME280;28058;46.344;17.786;2023-01-15T06:13:58;118336.50;;;-144.97;100.00
42415;BME280;28058;46.344;17.786;2023-01-15T06:16:25;118336.50;;;-144.97;100.00
42415;BME280;28058;46.344;17.786;2023-01-15T06:18:52;118336.50;;;-144.97;100.00
42415;BME280;28058;46.344;17.786;2023-01-15T06:21:19;118336.50;;;-144.97;100.00
42415;BME280;28058;46.344;17.786;2023-01-15T06:23:46;118336.50;;;-144.97;100.00
42415;BME280;28058;46.344;17.786;2023-01-15T06:26:15;118336.50;;;-144.97;100.00
42415;BME280;28058;46.344;17.786;2023-01-15T06:28:43;118336.50;;;-144.97;100.00
42415;BME280;28058;46.344;17.786;2023-01-15T06:31:12;118336.50;;;-144.97;100.00
42415;BME280;28058;46.344;17.786;2023-01-15T06:33:40;118336.50;;;-144.97;100.00
42415;BME280;28058;46.344;17.786;2023-01-15T06:36:10;118336.50;;;-144.97;100.00
42415;BME280;28058;46.344;17.786;2023-01-15T06:38:37;118336.50;;;-144.97;100.00
42415;BME280;28058;46.344;17.786;2023-01-15T06:41:07;118336.50;;;-144.97;100.00
42415;BME280;28058;46.344;17.786;2023-01-15T06:43:55;118336.50;;;-144.97;100.00
42415;BME280;28058;46.344;17.786;2023-01-15T06:46:43;118336.50;;;-144.97;100.00
42415;BME280;28058;46.344;17.786;2023-01-15T06:49:30;118336.50;;;-144.97;100.00
42415;BME280;28058;46.344;17.786;2023-01-15T06:51:57;118336.50;;;-144.97;100.00
42415;BME280;28058;46.344;17.786;2023-01-15T06:54:24;118336.50;;;-144.97;100.00
42415;BME280;28058;46.344;17.786;2023-01-15T06:56:52;118336.50;;;-144.97;100.00
42415;BME280;28058;46.344;17.786;2023-01-15T06:59:19;118336.50;;;-144.97;100.00
42415;BME280;28058;46.344;17.786;2023-01-15T07:01:46;118336.50;;;-144.97;100.00
42415;BME280;28058;46.344;17.786;2023-01-15T07:04:14;118336.50;;;-144.97;100.00
42415;BME280;28058;46.344;17.786;2023-01-15T07:06:41;118336.50;;;-144.97;100.00
42415;BME280;28058;46.344;17.786;2023-01-15T07:09:08;118336.50;;;-144.97;100.00
42415;BME280;28058;46.344;17.786;2023-01-15T07:11:35;118336.50;;;-144.97;100.00
42415;BME280;28058;46.344;17.786;2023-01-15T07:14:20;118336.50;;;-144.97;100.00
42415;BME280;28058;46.344;17.786;2023-01-15T07:16:48;118336.50;;;-144.97;100.00
42415;BME280;28058;46.344;17.786;2023-01-15T07:19:16;118336.50;;;-144.97;100.00
42415;BME280;28058;46.344;17.786;2023-01-15T07:21:43;118336.50;;;-144.97;100.00
42415;BME280;28058;46.344;17.786;2023-01-15T07:24:10;118336.50;;;-144.97;100.00
42415;BME280;28058;46.344;17.786;2023-01-15T07:26:38;118336.50;;;-144.97;100.00
42415;BME280;28058;46.344;17.786;2023-01-15T07:29:05;118336.50;;;-144.97;100.00
42415;BME280;28058;46.344;17.786;2023-01-15T07:31:32;118336.50;;;-144.97;100.00
42415;BME280;28058;46.344;17.786;2023-01-15T07:33:59;118336.50;;;-144.97;100.00
42415;BME280;28058;46.344;17.786;2023-01-15T07:36:26;118336.50;;;-144.97;100.00
42415;BME280;28058;46.344;17.786;2023-01-15T07:38:53;118336.50;;;-144.97;100.00
42415;BME280;28058;46.344;17.786;2023-01-15T07:41:20;118336.50;;;-144.97;100.00
42415;BME280;28058;46.344;17.786;2023-01-15T07:44:09;118336.50;;;-144.97;100.00
42415;BME280;28058;46.344;17.786;2023-01-15T07:46:54;118336.50;;;-144.97;100.00
42415;BME280;28058;46.344;17.786;2023-01-15T07:49:41;118336.50;;;-144.97;100.00
42415;BME280;28058;46.344;17.786;2023-01-15T07:52:12;118336.50;;;-144.97;100.00
42415;BME280;28058;46.344;17.786;2023-01-15T07:54:39;118336.50;;;-144.97;100.00
42415;BME280;28058;46.344;17.786;2023-01-15T07:57:06;118336.50;;;-144.97;100.00
42415;BME280;28058;46.344;17.786;2023-01-15T07:59:36;118336.50;;;-144.97;100.00
42415;BME280;28058;46.344;17.786;2023-01-15T08:02:03;118336.50;;;-144.97;100.00
42415;BME280;28058;46.344;17.786;2023-01-15T08:04:32;118336.50;;;-144.97;100.00
42415;BME280;28058;46.344;17.786;2023-01-15T08:07:00;118336.50;;;-144.97;100.00
42415;BME280;28058;46.344;17.786;2023-01-15T08:09:27;118336.50;;;-144.97;100.00
42415;BME280;28058;46.344;17.786;2023-01-15T08:11:58;118336.50;;;-144.97;100.00
42415;BME280;28058;46.344;17.786;2023-01-15T08:14:43;118336.50;;;-144.97;100.00
42415;BME280;28058;46.344;17.786;2023-01-15T08:17:29;118336.50;;;-144.97;100.00
42415;BME280;28058;46.344;17.786;2023-01-15T08:19:56;118336.50;;;-144.97;100.00
42415;BME280;28058;46.344;17.786;2023-01-15T08:22:23;118336.50;;;-144.97;100.00
42415;BME280;28058;46.344;17.786;2023-01-15T08:24:50;118336.50;;;-144.97;100.00
42415;BME280;28058;46.344;17.786;2023-01-15T08:27:17;118336.50;;;-144.97;100.00
42415;BME280;28058;46.344;17.786;2023-01-15T08:29:43;118336.50;;;-144.97;100.00
42415;BME280;28058;46.344;17.786;2023-01-15T08:32:10;118336.50;;;-144.97;100.00
42415;BME280;28058;46.344;17.786;2023-01-15T08:34:37;118336.50;;;-144.97;100.00
42415;BME280;28058;46.344;17.786;2023-01-15T08:37:05;118336.50;;;-144.97;100.00
42415;BME280;28058;46.344;17.786;2023-01-15T08:39:33;118336.50;;;-144.97;97.03
42415;BME280;28058;46.344;17.786;2023-01-15T08:41:59;118336.50;;;-144.97;93.04
42415;BME280;28058;46.344;17.786;2023-01-15T08:44:26;118336.50;;;-144.97;88.22
42415;BME280;28058;46.344;17.786;2023-01-15T08:46:53;118336.50;;;-144.97;79.67
42415;BME280;28058;46.344;17.786;2023-01-15T08:49:20;118336.50;;;-144.97;74.32
42415;BME280;28058;46.344;17.786;2023-01-15T08:51:47;118336.50;;;-144.97;69.65
42415;BME280;28058;46.344;17.786;2023-01-15T08:54:19;118336.50;;;-144.97;62.48
42415;BME280;28058;46.344;17.786;2023-01-15T08:56:46;118336.50;;;-144.97;60.32
42415;BME280;28058;46.344;17.786;2023-01-15T08:59:13;118336.50;;;-144.97;58.29
42415;BME280;28058;46.344;17.786;2023-01-15T09:01:40;118336.50;;;-144.97;62.61
42415;BME280;28058;46.344;17.786;2023-01-15T09:04:09;118336.50;;;-144.97;63.47
42415;BME280;28058;46.344;17.786;2023-01-15T09:06:39;118336.50;;;-144.97;62.82
42415;BME280;28058;46.344;17.786;2023-01-15T09:09:06;118336.50;;;-144.97;60.63
42415;BME280;28058;46.344;17.786;2023-01-15T09:11:33;118336.50;;;-144.97;60.81
42415;BME280;28058;46.344;17.786;2023-01-15T09:14:00;118336.50;;;-144.97;62.74
42415;BME280;28058;46.344;17.786;2023-01-15T09:16:27;118336.50;;;-144.97;60.28
42415;BME280;28058;46.344;17.786;2023-01-15T09:18:56;118336.50;;;-144.97;61.02
42415;BME280;28058;46.344;17.786;2023-01-15T09:21:23;118336.50;;;-144.97;61.33
42415;BME280;28058;46.344;17.786;2023-01-15T09:23:50;118336.50;;;-144.97;66.35
42415;BME280;28058;46.344;17.786;2023-01-15T09:26:37;118336.50;;;-144.97;70.46
42415;BME280;28058;46.344;17.786;2023-01-15T09:29:06;118336.50;;;-144.97;74.15
42415;BME280;28058;46.344;17.786;2023-01-15T09:31:34;118336.50;;;-144.97;76.41
42415;BME280;28058;46.344;17.786;2023-01-15T09:34:01;118336.50;;;-144.97;76.80
42415;BME280;28058;46.344;17.786;2023-01-15T09:36:31;118336.50;;;-144.97;75.07
42415;BME280;28058;46.344;17.786;2023-01-15T09:39:00;118336.50;;;-144.97;76.35
42415;BME280;28058;46.344;17.786;2023-01-15T09:55:54;118336.50;;;-144.97;71.99
42415;BME280;28058;46.344;17.786;2023-01-15T09:58:34;118336.50;;;-144.97;68.66
42415;BME280;28058;46.344;17.786;2023-01-15T10:01:01;118336.50;;;-144.97;68.32
42415;BME280;28058;46.344;17.786;2023-01-15T10:03:48;118336.50;;;-144.97;66.49
42415;BME280;28058;46.344;17.786;2023-01-15T10:06:26;118336.50;;;-144.97;64.79
42415;BME280;28058;46.344;17.786;2023-01-15T10:09:14;118336.50;;;-144.97;65.29
42415;BME280;28058;46.344;17.786;2023-01-15T10:11:52;118336.50;;;-144.97;65.79
42415;BME280;28058;46.344;17.786;2023-01-15T10:15:01;118336.50;;;-144.97;67.04
42415;BME280;28058;46.344;17.786;2023-01-15T10:17:48;118336.50;;;-144.97;66.24
42415;BME280;28058;46.344;17.786;2023-01-15T10:24:05;118336.50;;;-144.97;65.59
42415;BME280;28058;46.344;17.786;2023-01-15T10:32:42;118336.50;;;-144.97;61.15
42415;BME280;28058;46.344;17.786;2023-01-15T10:46:15;118336.50;;;-144.97;59.20
42415;BME280;28058;46.344;17.786;2023-01-15T10:49:16;118336.50;;;-144.97;60.78
42415;BME280;28058;46.344;17.786;2023-01-15T10:51:45;118336.50;;;-144.97;62.41
42415;BME280;28058;46.344;17.786;2023-01-15T10:54:39;118336.50;;;-144.97;60.02
42415;BME280;28058;46.344;17.786;2023-01-15T11:00:09;118336.50;;;-144.97;55.51
42415;BME280;28058;46.344;17.786;2023-01-15T11:02:55;118336.50;;;-144.97;53.26
42415;BME280;28058;46.344;17.786;2023-01-15T11:05:26;118336.50;;;-144.97;52.08
42415;BME280;28058;46.344;17.786;2023-01-15T11:07:53;118336.50;;;-144.97;53.03
42415;BME280;28058;46.344;17.786;2023-01-15T11:10:40;118336.50;;;-144.97;52.06
42415;BME280;28058;46.344;17.786;2023-01-15T11:13:20;118336.50;;;-144.97;50.80
42415;BME280;28058;46.344;17.786;2023-01-15T11:16:16;118336.50;;;-144.97;52.31
42415;BME280;28058;46.344;17.786;2023-01-15T11:19:15;118336.50;;;-144.97;47.70
42415;BME280;28058;46.344;17.786;2023-01-15T11:22:11;118336.50;;;-144.97;50.19
42415;BME280;28058;46.344;17.786;2023-01-15T11:24:56;118336.50;;;-144.97;48.84
42415;BME280;28058;46.344;17.786;2023-01-15T11:27:27;118336.50;;;-144.97;50.90
42415;BME280;28058;46.344;17.786;2023-01-15T11:29:57;118336.50;;;-144.97;50.43
42415;BME280;28058;46.344;17.786;2023-01-15T11:32:30;118336.50;;;-144.97;50.67
42415;BME280;28058;46.344;17.786;2023-01-15T11:35:15;118336.50;;;-144.97;50.19
42415;BME280;28058;46.344;17.786;2023-01-15T11:37:43;118336.50;;;-144.97;49.25
42415;BME280;28058;46.344;17.786;2023-01-15T11:40:18;118336.50;;;-144.97;50.15
42415;BME280;28058;46.344;17.786;2023-01-15T11:42:47;118336.50;;;-144.97;50.56
42415;BME280;28058;46.344;17.786;2023-01-15T11:45:32;118336.50;;;-144.97;50.52
42415;BME280;28058;46.344;17.786;2023-01-15T11:48:22;118336.50;;;-144.97;50.03
42415;BME280;28058;46.344;17.786;2023-01-15T11:51:11;118336.50;;;-144.97;52.23
42415;BME280;28058;46.344;17.786;2023-01-15T11:53:44;118336.50;;;-144.97;50.80
42415;BME280;28058;46.344;17.786;2023-01-15T11:56:22;118336.50;;;-144.97;50.55
42415;BME280;28058;46.344;17.786;2023-01-15T11:58:53;118336.50;;;-144.97;48.91
42415;BME280;28058;46.344;17.786;2023-01-15T12:01:47;118336.50;;;-144.97;48.53
42415;BME280;28058;46.344;17.786;2023-01-15T12:04:38;118336.50;;;-144.97;49.47
42415;BME280;28058;46.344;17.786;2023-01-15T12:07:12;118336.50;;;-144.97;51.76
42415;BME280;28058;46.344;17.786;2023-01-15T12:09:59;118336.50;;;-144.97;50.96
42415;BME280;28058;46.344;17.786;2023-01-15T12:13:05;118336.50;;;-144.97;50.93
42415;BME280;28058;46.344;17.786;2023-01-15T12:21:02;118336.50;;;-144.97;54.07
42415;BME280;28058;46.344;17.786;2023-01-15T12:23:48;118336.50;;;-144.97;52.25
42415;BME280;28058;46.344;17.786;2023-01-15T12:29:25;118336.50;;;-144.97;53.99
42415;BME280;28058;46.344;17.786;2023-01-15T12:32:10;118336.50;;;-144.97;54.72
42415;BME280;28058;46.344;17.786;2023-01-15T12:37:53;118336.50;;;-144.97;55.97
42415;BME280;28058;46.344;17.786;2023-01-15T12:40:30;118336.50;;;-144.97;58.67
42415;BME280;28058;46.344;17.786;2023-01-15T12:42:58;118336.50;;;-144.97;59.25
42415;BME280;28058;46.344;17.786;2023-01-15T12:45:47;118336.50;;;-144.97;61.75
42415;BME280;28058;46.344;17.786;2023-01-15T12:48:22;118336.50;;;-144.97;62.43
42415;BME280;28058;46.344;17.786;2023-01-15T12:50:54;118336.50;;;-144.97;63.97
42415;BME280;28058;46.344;17.786;2023-01-15T12:53:37;118336.50;;;-144.97;64.71
42415;BME280;28058;46.344;17.786;2023-01-15T12:59:11;118336.50;;;-144.97;64.86
42415;BME280;28058;46.344;17.786;2023-01-15T13:04:21;118336.50;;;-144.97;68.27
42415;BME280;28058;46.344;17.786;2023-01-15T13:06:52;118336.50;;;-144.97;69.82
42415;BME280;28058;46.344;17.786;2023-01-15T13:09:43;118336.50;;;-144.97;71.88
42415;BME280;28058;46.344;17.786;2023-01-15T13:12:14;118336.50;;;-144.97;71.70
42415;BME280;28058;46.344;17.786;2023-01-15T13:14:42;118336.50;;;-144.97;73.72
42415;BME280;28058;46.344;17.786;2023-01-15T13:22:31;118336.50;;;-144.97;76.20
42415;BME280;28058;46.344;17.786;2023-01-15T13:25:52;118336.50;;;-144.97;76.72
42415;BME280;28058;46.344;17.786;2023-01-15T13:33:53;118336.50;;;-144.97;80.55
42415;BME280;28058;46.344;17.786;2023-01-15T13:36:37;118336.50;;;-144.97;81.92
42415;BME280;28058;46.344;17.786;2023-01-15T13:39:13;118336.50;;;-144.97;82.94
42415;BME280;28058;46.344;17.786;2023-01-15T13:41:47;118336.50;;;-144.97;83.87
42415;BME280;28058;46.344;17.786;2023-01-15T13:44:36;118336.50;;;-144.97;85.24
42415;BME280;28058;46.344;17.786;2023-01-15T13:47:08;118336.50;;;-144.97;86.05
42415;BME280;28058;46.344;17.786;2023-01-15T13:49:36;118336.50;;;-144.97;87.24
42415;BME280;28058;46.344;17.786;2023-01-15T13:52:06;118336.50;;;-144.97;88.44
42415;BME280;28058;46.344;17.786;2023-01-15T13:54:44;118336.50;;;-144.97;89.36
42415;BME280;28058;46.344;17.786;2023-01-15T13:57:37;118336.50;;;-144.97;90.50
42415;BME280;28058;46.344;17.786;2023-01-15T14:02:53;118336.50;;;-144.97;90.69
42415;BME280;28058;46.344;17.786;2023-01-15T14:07:53;118336.50;;;-144.97;90.39
42415;BME280;28058;46.344;17.786;2023-01-15T14:13:23;118336.50;;;-144.97;92.58
42415;BME280;28058;46.344;17.786;2023-01-15T14:16:14;118336.50;;;-144.97;92.05